Latest Weather Observations for Dubbo

IDN60801

Issued at 4:35 am EST Wednesday 3 September 2014 (issued every 30 minutes, with the page automatically refreshed every 10 minutes)

About weather observations | Map of weather stations | Latest weather observations for NSW | Other Formats
Station Details ID: 065070 Name: DUBBO AIRPORT AWS Lat: -32.22 Lon: 148.58 Height: 284.0 m
Data from the previous 72 hours. | See also: Recent months at Dubbo
Date/Time
EST
Temp
°C
App
Temp
°C
Dew
Point
Rel
Hum
%
Delta-T
°C
Wind Press
QNH
hPa
Press
MSL
hPa
Rain
since 9 am
mm
Dir
 
Spd
km/h
Gust
km/h
Spd
kts
Gust
kts
03/04:30am 3.9 -0.6 2.3 89 0.6 SSW 15 17 8 9 1016.9 - 0.0
03/04:00am 4.4 0.4 2.6 88 0.7 SSW 13 19 7 10 1016.8 1016.6 0.0
03/03:30am 4.3 0.2 2.2 86 0.9 SW 13 17 7 9 1016.8 - 0.0
03/03:00am 5.4 0.3 2.9 84 1.0 SW 19 28 10 15 1016.8 1016.6 0.0
03/02:30am 5.4 1.1 3.3 86 0.9 SW 15 22 8 12 1017.1 - 0.0
03/02:00am 5.0 1.0 2.7 85 1.0 SW 13 17 7 9 1017.2 1017.0 0.0
03/01:30am 5.7 1.3 2.9 82 1.2 SW 15 20 8 11 1017.2 - 0.0
03/01:00am 6.1 1.4 2.9 80 1.3 SW 17 22 9 12 1017.3 1017.1 0.0
03/12:30am 6.6 1.5 3.0 78 1.5 SW 19 28 10 15 1017.4 - 0.0
03/12:00am 7.2 2.0 3.3 76 1.7 SW 20 28 11 15 1017.4 1017.2 0.0
 
Date/Time
EST
Temp
°C
App
Temp
°C
Dew
Point
Rel
Hum
%
Delta-T
°C
Wind Press
QNH
hPa
Press
MSL
hPa
Rain
since 9 am
mm
Dir
 
Spd
km/h
Gust
km/h
Spd
kts
Gust
kts
02/11:30pm 7.9 1.5 3.2 72 2.0 SW 26 37 14 20 1017.3 - 0.0
02/11:00pm 8.0 2.3 2.9 70 2.2 SW 22 28 12 15 1017.0 1016.8 0.0
02/10:30pm 7.7 2.9 2.6 70 2.2 WSW 17 20 9 11 1017.0 - 0.0
02/10:00pm 9.2 4.4 2.8 64 2.8 SW 17 20 9 11 1016.9 1016.7 0.0
02/09:30pm 10.5 2.3 2.6 58 3.4 SW 35 50 19 27 1017.0 - 0.0
02/09:23pm 10.6 3.7 2.4 57 3.6 SW 28 50 15 27 1016.9 - 0.0
02/09:00pm 10.2 4.0 2.3 58 3.4 SW 24 37 13 20 1016.9 1016.7 0.0
02/08:30pm 10.8 4.6 2.4 56 3.7 SW 24 32 13 17 1016.8 - 0.0
02/08:00pm 11.2 5.5 2.8 56 3.7 SW 22 37 12 20 1016.4 1016.2 0.0
02/07:30pm 10.6 5.4 2.4 57 3.6 WSW 19 24 10 13 1016.1 - 0.0
02/07:00pm 11.5 6.1 2.3 53 4.0 SW 20 28 11 15 1015.5 1015.3 0.0
02/06:30pm 12.1 5.9 2.3 51 4.3 WSW 24 33 13 18 1015.0 - 0.0
02/06:00pm 12.4 4.6 2.0 49 4.6 WSW 32 44 17 24 1014.8 1014.6 0.0
02/05:30pm 13.5 5.5 1.8 45 5.2 WSW 33 48 18 26 1014.4 - 0.0
02/05:00pm 14.2 5.8 1.5 42 5.6 SW 35 52 19 28 1013.9 1013.7 0.0
02/04:37pm 14.6 6.2 1.5 41 5.8 WSW 35 54 19 29 1013.7 - 0.0
02/04:30pm 14.5 5.3 1.4 41 5.8 WSW 39 54 21 29 1013.6 - 0.0
02/04:00pm 15.4 7.4 1.5 39 6.2 SW 33 44 18 24 1013.3 1013.1 0.0
02/03:30pm 16.0 7.6 1.3 37 6.5 SW 35 59 19 32 1013.1 - 0.0
02/03:01pm 14.8 8.0 3.3 46 5.3 SW 28 48 15 26 1013.1 - 0.0
02/03:00pm 14.3 7.5 2.9 46 5.2 SW 28 43 15 23 1013.1 1012.9 0.0
02/02:30pm 15.0 7.9 3.8 47 5.2 SW 30 39 16 21 1013.2 - 0.0
02/02:00pm 14.6 8.5 2.8 45 5.4 SW 24 39 13 21 1013.2 1013.0 0.0
02/01:54pm 14.9 8.0 4.6 50 4.9 SW 30 48 16 26 1013.2 - 0.0
02/01:30pm 14.2 7.3 4.5 52 4.6 SW 30 43 16 23 1013.3 - 0.0
02/01:00pm 13.7 5.7 4.0 52 4.5 SW 35 48 19 26 1013.6 1013.4 0.0
02/12:30pm 13.2 6.7 4.9 57 3.9 SW 28 52 15 28 1013.8 - 0.0
02/12:07pm 13.5 6.2 4.6 55 4.2 SW 32 50 17 27 1013.9 - 0.0
02/12:00pm 13.8 6.6 5.2 56 4.1 SW 32 46 17 25 1014.0 1013.8 0.0
02/11:30am 13.8 7.4 7.1 64 3.3 SW 30 41 16 22 1014.1 - 0.0
02/11:00am 12.8 6.5 5.7 62 3.4 SW 28 41 15 22 1014.3 1014.1 0.0
02/10:30am 12.1 4.4 7.2 72 2.4 SW 37 50 20 27 1014.3 - 0.0
02/10:02am 13.1 7.1 8.6 74 2.3 SW 30 48 16 26 1014.1 - 0.0
02/10:00am 12.4 6.5 7.7 73 2.3 SW 28 41 15 22 1014.1 1013.9 0.0
02/09:30am 11.6 4.8 7.7 77 1.9 SW 33 46 18 25 1014.1 - 0.0
02/09:00am 11.4 5.3 8.3 81 1.5 SW 30 39 16 21 1014.0 1013.8 3.4
02/08:34am 11.1 5.8 8.5 84 1.3 SW 26 33 14 18 1013.7 - 3.4
02/08:30am 11.0 5.8 8.9 87 1.1 SW 26 33 14 18 1013.7 - 3.4
02/08:00am 9.9 5.1 8.7 92 0.6 SW 24 33 13 18 1013.4 1013.2 3.4
02/07:47am 9.8 4.5 8.6 92 0.6 SW 26 35 14 19 1013.2 - 3.4
02/07:37am 9.8 5.0 8.7 93 0.5 SW 24 35 13 19 1013.0 - 3.4
02/07:30am 9.8 4.6 8.9 94 0.4 SW 26 37 14 20 1013.0 - 3.4
02/07:12am 10.1 6.5 9.9 99 0.1 WSW 19 26 10 14 1012.7 - 3.2
02/07:00am 10.1 6.9 9.9 99 0.1 WSW 17 22 9 12 1012.4 1012.1 3.0
02/06:45am 10.1 8.0 9.8 98 0.2 W 11 15 6 8 1012.3 - 2.4
02/06:35am 10.1 7.6 9.6 97 0.3 WNW 13 19 7 10 1012.3 - 2.2
02/06:30am 10.2 7.7 9.7 97 0.3 WNW 13 19 7 10 1012.6 - 1.8
02/06:00am 10.3 8.8 9.2 93 0.6 WNW 7 11 4 6 1012.1 1011.9 1.0
02/05:30am 10.6 9.6 8.7 88 0.9 W 4 7 2 4 1012.0 - 0.2
02/05:00am 10.6 8.6 8.5 87 1.0 SW 9 15 5 8 1012.0 1011.8 0.2
02/04:30am 11.2 7.2 8.4 83 1.4 SSW 19 26 10 14 1011.7 - 0.0
02/04:00am 11.7 9.1 7.8 77 1.9 SW 11 17 6 9 1012.8 1012.5 0.0
02/03:30am 12.2 9.5 7.3 72 2.4 SW 11 17 6 9 1012.8 - 0.0
02/03:00am 12.2 9.4 7.1 71 2.5 SW 11 17 6 9 1013.0 1012.7 0.0
02/02:30am 12.6 9.1 7.1 69 2.7 SSW 15 20 8 11 1013.0 - 0.0
02/02:00am 12.7 8.4 7.0 68 2.8 SSW 19 26 10 14 1013.1 1012.9 0.0
02/01:30am 13.0 8.1 7.0 67 2.9 SSW 22 37 12 20 1013.1 - 0.0
02/01:00am 13.4 8.1 6.7 64 3.3 SSW 24 39 13 21 1013.0 1012.7 0.0
02/12:30am 13.8 8.5 6.7 62 3.5 SSW 24 37 13 20 1012.9 - 0.0
02/12:00am 14.4 9.0 6.3 58 4.0 SW 24 30 13 16 1012.4 1012.1 0.0
 
Date/Time
EST
Temp
°C
App
Temp
°C
Dew
Point
Rel
Hum
%
Delta-T
°C
Wind Press
QNH
hPa
Press
MSL
hPa
Rain
since 9 am
mm
Dir
 
Spd
km/h
Gust
km/h
Spd
kts
Gust
kts
01/11:32pm 12.7 6.7 7.2 69 2.7 W 28 46 15 25 1012.7 - 0.0
01/11:30pm 11.8 8.5 6.5 70 2.5 NNE 13 17 7 9 1011.6 - 0.0
01/11:00pm 11.5 8.5 5.8 68 2.7 NE 11 13 6 7 1011.6 1011.4 0.0
01/10:30pm 12.0 9.0 5.9 66 2.9 NE 11 13 6 7 1012.0 - 0.0
01/10:00pm 12.4 9.7 5.8 64 3.1 NE 9 11 5 6 1012.4 1012.1 0.0
01/09:30pm 12.7 9.7 6.1 64 3.2 NE 11 13 6 7 1012.7 - 0.0
01/09:00pm 13.1 10.6 6.5 64 3.2 NNE 9 13 5 7 1012.8 1012.5 0.0
01/08:30pm 13.1 10.1 5.8 61 3.5 NE 11 11 6 6 1012.9 - 0.0
01/08:00pm 13.5 10.9 5.9 60 3.7 NE 9 11 5 6 1013.0 1012.7 0.0
01/07:30pm 14.0 11.5 6.6 61 3.6 NNE 9 11 5 6 1013.3 - 0.0
01/07:00pm 13.9 11.4 6.7 62 3.5 NNE 9 11 5 6 1013.3 1013.1 0.0
01/06:30pm 14.9 12.5 7.0 59 3.9 N 9 11 5 6 1013.3 - 0.0
01/06:00pm 16.9 14.9 7.3 53 4.9 NNW 7 9 4 5 1013.4 1013.2 0.0
01/05:30pm 17.2 15.3 7.5 53 4.9 NNW 7 9 4 5 1013.3 - 0.0
01/05:00pm 18.3 16.3 7.1 48 5.7 NW 7 9 4 5 1013.2 1013.0 0.0
01/04:30pm 19.5 16.2 6.3 42 6.7 NW 13 17 7 9 1013.2 - 0.0
01/04:00pm 20.0 15.5 6.0 40 7.1 NW 19 26 10 14 1013.4 1013.2 0.0
01/03:30pm 21.1 15.9 5.5 36 7.9 NW 22 26 12 14 1013.3 - 0.0
01/03:00pm 21.3 16.0 4.8 34 8.2 NNW 22 30 12 16 1013.5 1013.3 0.0
01/02:30pm 21.5 16.4 5.8 36 8.0 NW 22 32 12 17 1014.0 - 0.0
01/02:00pm 21.3 16.0 5.2 35 8.1 NW 22 32 12 17 1014.3 1014.1 0.0
01/01:30pm 21.2 16.4 5.5 36 7.9 NW 20 32 11 17 1014.6 - 0.0
01/01:00pm 20.0 15.3 6.0 40 7.1 NW 20 26 11 14 1015.2 1015.0 0.0
01/12:30pm 19.5 14.4 5.9 41 6.8 NW 22 28 12 15 1016.0 - 0.0
01/12:00pm 20.1 16.0 6.4 41 7.0 NNW 17 24 9 13 1016.5 1016.3 0.0
01/11:30am 19.2 15.3 7.3 46 6.1 NNW 17 28 9 15 1017.0 - 0.0
01/11:00am 18.9 16.3 9.4 54 5.1 NNW 13 19 7 10 1017.7 1017.5 0.0
01/10:30am 18.3 17.0 9.9 58 4.5 N 7 15 4 8 1018.0 - 0.0
01/10:00am 15.0 13.6 8.7 66 3.2 SE 6 9 3 5 1018.2 1018.0 0.0
01/09:30am 13.1 11.4 8.4 73 2.4 SE 7 11 4 6 1018.3 - 0.0
01/09:00am 10.1 7.6 6.6 79 1.7 SE 9 11 5 6 1018.5 1018.7 0.0
01/08:30am 10.4 8.1 7.6 83 1.4 ESE 9 13 5 7 1018.5 - 0.0
01/08:00am 7.9 5.0 6.5 91 0.7 SSE 11 13 6 7 1018.8 1019.0 0.0
01/07:30am 6.6 4.1 6.5 99 0.0 SE 9 15 5 8 1018.7 - 0.0
01/07:00am 4.3 0.9 4.2 99 0.0 SSE 11 13 6 7 1018.6 1018.8 0.0
01/06:30am 3.7 -0.2 3.6 99 0.0 SSE 13 15 7 8 1018.3 - 0.0
01/06:00am 3.6 0.1 3.3 98 0.1 SE 11 13 6 7 1017.9 1018.1 0.0
01/05:30am 4.5 0.8 4.4 99 0.0 SSE 13 15 7 8 1017.7 - 0.0
01/05:00am 4.3 0.9 4.2 99 0.0 SE 11 13 6 7 1017.5 1017.7 0.0
01/04:30am 4.1 0.7 4.0 99 0.0 SE 11 13 6 7 1017.4 - 0.0
01/04:00am 4.2 0.1 4.1 99 0.0 SSE 15 17 8 9 1017.2 1017.4 0.0
01/03:30am 4.6 0.9 4.5 99 0.0 SSE 13 15 7 8 1017.2 - 0.0
01/03:00am 4.6 1.3 4.5 99 0.0 SSE 11 13 6 7 1017.1 1017.3 0.0
01/02:30am 4.5 0.8 4.4 99 0.0 SSE 13 15 7 8 1017.2 - 0.0
01/02:00am 5.0 1.4 4.9 99 0.0 SE 13 13 7 7 1017.3 1017.5 0.0
01/01:30am 5.2 2.3 4.8 97 0.2 SE 9 13 5 7 1017.5 - 0.0
01/01:00am 4.7 2.2 4.0 95 0.3 ESE 6 7 3 4 1017.9 1018.1 0.0
01/12:30am 5.4 3.1 4.7 95 0.3 E 6 7 3 4 1018.0 - 0.0
01/12:00am 5.7 3.3 5.1 96 0.3 E 7 9 4 5 1018.1 1018.3 0.0
 
Date/Time
EST
Temp
°C
App
Temp
°C
Dew
Point
Rel
Hum
%
Delta-T
°C
Wind Press
QNH
hPa
Press
MSL
hPa
Rain
since 9 am
mm
Dir
 
Spd
km/h
Gust
km/h
Spd
kts
Gust
kts
31/11:30pm 6.6 4.3 4.9 89 0.8 ESE 6 7 3 4 1018.6 - 0.0
31/11:00pm 7.4 4.8 5.9 90 0.7 SE 9 11 5 6 1018.7 1018.9 0.0
31/10:30pm 7.8 5.7 5.8 87 0.9 SE 6 9 3 5 1018.7 - 0.0
31/10:00pm 8.6 6.3 5.9 83 1.2 SSW 7 9 4 5 1018.8 1019.0 0.0
31/09:30pm 9.2 8.4 6.6 84 1.2 CALM 0 0 0 0 1018.8 - 0.0
31/09:00pm 10.2 9.5 7.1 81 1.5 CALM 0 0 0 0 1018.8 1019.0 0.0
31/08:30pm 9.5 7.8 5.9 78 1.7 E 4 7 2 4 1018.7 - 0.0
31/08:00pm 10.9 10.1 6.3 73 2.2 CALM 0 0 0 0 1018.5 1018.7 0.0
31/07:30pm 12.9 12.2 6.9 67 2.9 CALM 0 0 0 0 1018.4 - 0.0
31/07:00pm 13.5 11.7 7.1 65 3.2 WNW 6 9 3 5 1018.2 1018.4 0.0
31/06:30pm 14.5 12.7 7.1 61 3.7 W 6 7 3 4 1018.0 - 0.0
31/06:00pm 14.6 12.6 6.4 58 4.0 W 6 7 3 4 1017.9 1018.1 0.0
31/05:30pm 17.2 15.4 7.0 51 5.2 WSW 6 7 3 4 1017.5 - 0.0
31/05:00pm 17.3 15.4 6.8 50 5.3 SW 6 7 3 4 1017.2 1017.4 0.0
31/04:30pm 19.8 17.8 6.9 43 6.6 N 7 11 4 6 1017.3 - 0.0
31/04:00pm 19.9 17.8 5.9 40 7.0 WSW 6 7 3 4 1017.4 1017.6 0.0
31/03:30pm 19.8 17.3 6.5 42 6.8 SE 9 15 5 8 1017.6 - 0.0
31/03:00pm 19.9 17.1 7.0 43 6.6 SSE 11 15 6 8 1017.9 1018.1 0.0
31/02:30pm 19.8 17.9 6.5 42 6.8 NE 6 9 3 5 1018.1 - 0.0
31/02:00pm 18.5 15.6 6.4 45 6.1 SSE 11 20 6 11 1018.6 1018.8 0.0
31/01:30pm 19.5 17.0 6.6 43 6.6 ESE 9 13 5 7 1018.8 - 0.0
31/01:00pm 18.0 15.6 6.8 48 5.6 SW 9 13 5 7 1019.4 1019.7 0.0
31/12:30pm 18.3 16.3 8.6 53 5.1 SW 9 17 5 9 1019.9 - 0.0
31/12:00pm 18.2 15.9 9.0 55 4.8 ESE 11 17 6 9 1020.3 1020.5 0.0
31/11:30am 17.9 15.9 8.5 54 4.9 E 9 13 5 7 1020.8 - 0.0
31/11:00am 17.4 15.2 9.3 59 4.3 ENE 11 17 6 9 1021.3 1021.5 0.0
31/10:30am 16.4 14.7 9.8 65 3.5 ESE 9 15 5 8 1021.7 - 0.0
31/10:00am 15.4 13.9 10.4 72 2.7 ESE 9 15 5 8 1021.8 1022.0 0.0
31/09:30am 13.8 12.0 9.6 76 2.2 SE 9 15 5 8 1022.0 - 0.0
31/09:00am 12.4 10.2 9.2 81 1.6 SE 11 13 6 7 1022.0 1022.3 0.0
31/08:30am 10.4 8.3 8.3 87 1.0 SE 9 11 5 6 1022.1 - 0.0
31/08:00am 8.8 6.2 7.6 92 0.6 SE 11 13 6 7 1022.0 1022.3 0.0
31/07:30am 7.7 5.8 7.6 99 0.0 SSE 7 9 4 5 1022.0 - 0.0
31/07:00am 6.0 3.9 5.9 99 0.0 SSE 6 9 3 5 1021.6 1021.8 0.0
31/06:30am 5.3 1.7 5.2 99 0.0 SE 13 17 7 9 1021.3 - 0.0
31/06:00am 5.8 2.0 5.7 99 0.0 SSE 15 17 8 9 1021.0 1021.2 0.0
31/05:30am 5.9 2.1 5.8 99 0.0 SSE 15 17 8 9 1020.8 - 0.0
31/05:00am 6.3 2.2 6.2 99 0.0 SSE 17 19 9 10 1020.7 1020.9 0.0

Other Formats:

Comma delimited format used in spreadsheet applications
http://www.bom.gov.au/fwo/IDN60801/IDN60801.95719.axf

JavaScript Object Notation format (JSON) in row-major order
http://www.bom.gov.au/fwo/IDN60801/IDN60801.95719.json